createdAt,value
2018-03-26T00:00:05.610Z,30.65
2018-03-26T00:02:33.349Z,28.35
2018-03-26T00:05:01.042Z,30.33
2018-03-26T00:07:28.730Z,29.73
2018-03-26T00:09:56.489Z,28.42
2018-03-26T00:12:24.171Z,28.90
2018-03-26T00:14:52.626Z,29.08
2018-03-26T00:17:20.366Z,26.30
2018-03-26T00:19:48.048Z,29.05
2018-03-26T00:22:15.734Z,28.52
2018-03-26T00:24:44.285Z,26.42
2018-03-26T00:27:12.022Z,30.75
2018-03-26T00:29:39.703Z,30.50
2018-03-26T00:32:07.479Z,27.73
2018-03-26T00:34:35.174Z,28.65
2018-03-26T00:37:02.873Z,28.67
2018-03-26T00:39:30.635Z,26.27
2018-03-26T00:41:58.332Z,31.35
2018-03-26T00:44:26.792Z,30.25
2018-03-26T00:46:54.529Z,31.95
2018-03-26T00:49:22.998Z,31.62
2018-03-26T00:51:50.680Z,29.23
2018-03-26T00:54:18.430Z,28.80
2018-03-26T00:56:46.148Z,28.70
2018-03-26T00:59:13.846Z,27.27
2018-03-26T01:01:41.590Z,25.83
2018-03-26T01:04:09.278Z,28.77
2018-03-26T01:06:36.965Z,37.00
2018-03-26T01:09:04.747Z,27.42
2018-03-26T01:11:33.202Z,29.35
2018-03-26T01:14:00.898Z,30.05
2018-03-26T01:16:28.647Z,30.98
2018-03-26T01:18:56.341Z,32.17
2018-03-26T01:21:24.033Z,31.20
2018-03-26T01:23:51.783Z,28.87
2018-03-26T01:26:19.470Z,29.42
2018-03-26T01:28:47.934Z,31.10
2018-03-26T01:31:15.674Z,31.30
2018-03-26T01:33:43.361Z,29.90
2018-03-26T01:36:11.046Z,28.77
2018-03-26T01:38:39.565Z,30.92
2018-03-26T01:41:07.250Z,29.87
2018-03-26T01:43:34.934Z,33.55
2018-03-26T01:46:03.449Z,27.25
2018-03-26T01:48:31.140Z,31.02
2018-03-26T01:50:58.834Z,27.25
2018-03-26T01:53:27.376Z,29.20
2018-03-26T01:55:55.066Z,28.70
2018-03-26T01:58:22.761Z,31.20
2018-03-26T02:00:50.511Z,33.40
2018-03-26T02:03:18.201Z,27.60
2018-03-26T02:05:45.910Z,29.20
2018-03-26T02:08:14.422Z,31.45
2018-03-26T02:10:42.113Z,31.77
2018-03-26T02:13:09.825Z,38.38
2018-03-26T02:15:38.329Z,39.97
2018-03-26T02:18:06.029Z,40.92
2018-03-26T02:20:33.719Z,35.92
2018-03-26T02:23:02.228Z,43.40
2018-03-26T02:25:29.915Z,36.03
2018-03-26T02:27:57.601Z,33.75
2018-03-26T02:30:25.348Z,30.30
2018-03-26T02:32:53.041Z,31.00
2018-03-26T02:35:21.502Z,28.75
2018-03-26T02:37:49.249Z,33.38
2018-03-26T02:40:16.943Z,31.50
2018-03-26T02:42:44.642Z,35.53
2018-03-26T02:45:12.381Z,33.88
2018-03-26T02:47:40.081Z,39.40
2018-03-26T02:50:07.784Z,35.80
2018-03-26T02:52:36.285Z,30.92
2018-03-26T02:55:03.998Z,43.00
2018-03-26T02:57:31.688Z,39.95
2018-03-26T03:00:00.199Z,34.80
2018-03-26T03:02:27.893Z,38.75
2018-03-26T03:04:55.586Z,32.22
2018-03-26T03:07:24.105Z,28.62
2018-03-26T03:09:51.797Z,28.10
2018-03-26T03:12:19.487Z,31.33
2018-03-26T03:14:48.002Z,32.40
2018-03-26T03:17:15.709Z,45.40
2018-03-26T03:19:44.158Z,55.60
2018-03-26T03:22:11.894Z,42.65
2018-03-26T03:24:39.578Z,36.38
2018-03-26T03:27:07.286Z,30.05
2018-03-26T03:29:35.795Z,30.00
2018-03-26T03:32:03.506Z,27.90
2018-03-26T03:34:31.965Z,27.55
2018-03-26T03:36:59.726Z,24.83
2018-03-26T03:39:27.411Z,25.37
2018-03-26T03:41:55.920Z,25.60
2018-03-26T03:44:23.661Z,24.17
2018-03-26T03:46:52.115Z,27.40
2018-03-26T03:49:19.798Z,28.87
2018-03-26T03:51:47.575Z,26.33
2018-03-26T03:54:15.294Z,28.02
2018-03-26T03:56:42.989Z,29.37
2018-03-26T03:59:10.735Z,39.83
2018-03-26T04:01:39.189Z,43.72
2018-03-26T04:04:06.883Z,38.13
2018-03-26T04:06:34.675Z,34.53
2018-03-26T04:09:02.366Z,30.17
2018-03-26T04:11:30.070Z,30.83
2018-03-26T04:13:58.594Z,31.60
2018-03-26T04:16:26.281Z,27.13
2018-03-26T04:18:53.976Z,26.92
2018-03-26T04:21:21.721Z,37.97
2018-03-26T04:23:50.169Z,30.05
2018-03-26T04:26:17.852Z,29.30
2018-03-26T04:28:46.381Z,32.20
2018-03-26T04:31:14.068Z,28.92
2018-03-26T04:33:41.758Z,24.37
2018-03-26T04:36:10.283Z,24.25
2018-03-26T04:38:37.976Z,23.12
2018-03-26T04:41:05.667Z,24.40
2018-03-26T04:43:33.462Z,26.90
2018-03-26T04:46:01.159Z,24.52
2018-03-26T04:48:28.871Z,23.17
2018-03-26T04:50:56.609Z,21.00
2018-03-26T04:53:25.065Z,26.58
2018-03-26T04:55:52.771Z,24.65
2018-03-26T04:58:20.518Z,24.08
2018-03-26T05:00:48.215Z,21.87
2018-03-26T05:03:15.917Z,25.65
2018-03-26T05:05:44.431Z,25.02
2018-03-26T05:08:12.130Z,23.52
2018-03-26T05:10:39.823Z,25.75
2018-03-26T05:13:08.338Z,32.47
2018-03-26T05:15:36.032Z,34.05
2018-03-26T05:18:03.740Z,31.23
2018-03-26T05:20:31.495Z,26.73
2018-03-26T05:22:59.181Z,27.70
2018-03-26T05:25:26.874Z,27.08
2018-03-26T05:27:54.621Z,25.65
2018-03-26T05:30:22.310Z,25.08
2018-03-26T05:32:50.001Z,23.27
2018-03-26T05:35:17.845Z,24.77
2018-03-26T05:37:46.301Z,25.17
2018-03-26T05:40:13.994Z,24.73
2018-03-26T05:42:42.502Z,22.35
2018-03-26T05:45:10.229Z,22.98
2018-03-26T05:47:38.695Z,24.27
2018-03-26T05:50:06.445Z,26.67
2018-03-26T05:52:34.134Z,23.55
2018-03-26T05:55:02.608Z,24.55
2018-03-26T05:57:31.118Z,27.55
2018-03-26T05:59:58.806Z,23.10
2018-03-26T06:02:26.521Z,23.30
2018-03-26T06:04:54.330Z,24.90
2018-03-26T06:07:22.024Z,23.40
2018-03-26T06:09:50.480Z,33.35
2018-03-26T06:12:18.219Z,26.73
2018-03-26T06:14:45.907Z,24.75
2018-03-26T06:17:16.526Z,26.12
2018-03-26T06:19:44.273Z,25.95
2018-03-26T06:22:11.991Z,28.12
2018-03-26T06:24:39.703Z,29.55
2018-03-26T06:27:08.262Z,28.85
2018-03-26T06:29:36.026Z,24.67
2018-03-26T06:32:03.737Z,27.17
2018-03-26T06:34:32.269Z,31.52
2018-03-26T06:50:23.329Z,28.98
2018-03-26T06:52:51.023Z,28.30
2018-03-26T06:55:18.717Z,27.92
2018-03-26T06:57:47.226Z,27.23
2018-03-26T07:00:14.938Z,27.90
2018-03-26T07:02:42.630Z,28.23
2018-03-26T07:05:10.377Z,27.87
2018-03-26T07:07:38.829Z,28.30
2018-03-26T07:10:06.518Z,28.10
2018-03-26T07:12:35.033Z,25.88
2018-03-26T07:15:02.724Z,25.52
2018-03-26T07:17:30.426Z,28.35
2018-03-26T07:19:58.936Z,27.90
2018-03-26T07:22:26.629Z,26.35
2018-03-26T07:24:55.085Z,28.42
2018-03-26T07:27:22.826Z,28.70
2018-03-26T07:29:59.313Z,28.23
2018-03-26T07:32:27.040Z,30.60
2018-03-26T07:34:55.479Z,29.65
2018-03-26T07:37:23.160Z,29.55
2018-03-26T07:39:51.655Z,26.52
2018-03-26T07:42:19.327Z,29.77
2018-03-26T07:47:43.412Z,25.52
2018-03-26T07:50:11.108Z,26.58
2018-03-26T07:52:38.790Z,29.85
2018-03-26T07:55:06.526Z,25.58
2018-03-26T07:57:34.203Z,25.17
2018-03-26T08:00:01.883Z,31.33
2018-03-26T08:02:29.619Z,29.30
2018-03-26T08:04:57.304Z,28.20
2018-03-26T08:07:24.979Z,28.20
2018-03-26T08:09:53.492Z,27.05
2018-03-26T08:12:21.173Z,27.55
2018-03-26T08:14:48.852Z,26.00
2018-03-26T08:17:16.622Z,28.90
2018-03-26T08:19:45.073Z,27.45
2018-03-26T08:22:12.782Z,29.73
2018-03-26T08:24:41.292Z,30.73
2018-03-26T08:27:08.981Z,29.52
2018-03-26T08:29:36.661Z,26.42
2018-03-26T08:32:04.573Z,28.40
2018-03-26T08:34:32.263Z,28.85
2018-03-26T08:36:59.972Z,29.90
2018-03-26T08:39:28.474Z,28.23
2018-03-26T08:41:56.161Z,30.50
2018-03-26T08:44:23.839Z,26.58
2018-03-26T08:46:51.568Z,28.52
2018-03-26T08:49:19.251Z,27.67
2018-03-26T08:51:46.937Z,30.62
2018-03-26T08:54:15.477Z,33.42
2018-03-26T08:56:43.154Z,27.77
2018-03-26T08:59:10.843Z,29.75
2018-03-26T09:01:39.348Z,28.62
2018-03-26T09:04:07.039Z,29.77
2018-03-26T09:06:34.713Z,29.48
2018-03-26T09:09:02.458Z,25.92
2018-03-26T09:11:30.144Z,28.35
2018-03-26T09:13:57.825Z,29.37
2018-03-26T09:16:26.346Z,29.00
2018-03-26T09:18:54.033Z,31.70
2018-03-26T09:21:21.716Z,28.25
2018-03-26T09:23:50.237Z,25.70
2018-03-26T09:26:18.194Z,27.10
2018-03-26T09:28:45.872Z,27.55
2018-03-26T09:31:13.670Z,25.70
2018-03-26T09:33:42.314Z,29.00
2018-03-26T09:36:10.078Z,27.13
2018-03-26T09:38:38.716Z,30.25
2018-03-26T09:41:07.164Z,31.12
2018-03-26T09:43:34.868Z,29.65
2018-03-26T09:46:02.646Z,30.33
2018-03-26T09:48:30.349Z,30.60
2018-03-26T09:50:58.048Z,31.55
2018-03-26T09:53:25.811Z,32.15
2018-03-26T09:55:53.503Z,30.65
2018-03-26T09:58:21.204Z,29.65
2018-03-26T10:00:48.950Z,30.55
2018-03-26T10:03:16.659Z,30.55
2018-03-26T10:05:44.419Z,29.33
2018-03-26T10:08:12.238Z,28.62
2018-03-26T10:10:39.944Z,30.92
2018-03-26T10:13:07.628Z,32.58
2018-03-26T10:15:35.380Z,28.77
2018-03-26T10:18:03.067Z,32.08
2018-03-26T10:20:30.792Z,30.75
2018-03-26T10:22:58.532Z,31.00
2018-03-26T10:25:26.220Z,30.25
2018-03-26T10:27:53.924Z,29.02
2018-03-26T10:30:21.714Z,30.55
2018-03-26T10:32:50.200Z,30.52
2018-03-26T10:35:18.653Z,32.13
2018-03-26T10:37:46.429Z,34.58
2018-03-26T10:40:14.923Z,34.25
2018-03-26T10:42:42.619Z,32.92
2018-03-26T10:45:10.362Z,34.20
2018-03-26T10:47:38.109Z,34.30
2018-03-26T10:50:05.846Z,33.97
2018-03-26T10:52:34.373Z,33.33
2018-03-26T10:55:02.208Z,33.08
2018-03-26T10:57:30.014Z,30.67
2018-03-26T10:59:58.127Z,33.67
2018-03-26T11:02:26.706Z,33.90
2018-03-26T11:04:55.290Z,29.65
2018-03-26T11:07:23.965Z,32.97
2018-03-26T11:09:52.578Z,34.60
2018-03-26T11:12:20.386Z,34.30
2018-03-26T11:14:48.279Z,36.15
2018-03-26T11:17:16.873Z,37.20
2018-03-26T11:19:44.684Z,38.38
2018-03-26T11:22:12.560Z,37.58
2018-03-26T11:24:40.382Z,38.20
2018-03-26T11:27:08.217Z,37.08
2018-03-26T11:29:36.859Z,35.20
2018-03-26T11:32:04.656Z,38.05
2018-03-26T11:34:33.230Z,34.47
2018-03-26T11:37:02.344Z,32.45
2018-03-26T11:39:30.146Z,34.58
2018-03-26T11:41:57.949Z,34.15
2018-03-26T11:44:26.607Z,36.97
2018-03-26T11:46:54.430Z,37.50
2018-03-26T11:49:22.256Z,33.75
2018-03-26T11:51:50.893Z,45.85
2018-03-26T11:54:18.688Z,36.92
2018-03-26T11:56:46.491Z,37.40
2018-03-26T11:59:14.375Z,36.50
2018-03-26T12:01:42.175Z,34.03
2018-03-26T12:04:09.984Z,39.92
2018-03-26T12:06:37.836Z,40.35
2018-03-26T12:09:05.646Z,36.10
2018-03-26T12:11:33.469Z,38.85
2018-03-26T12:14:01.323Z,36.83
2018-03-26T12:16:29.885Z,36.85
2018-03-26T12:18:58.550Z,38.75
2018-03-26T12:21:26.421Z,40.03
2018-03-26T12:24:06.039Z,35.70
2018-03-26T12:26:33.916Z,36.88
2018-03-26T12:29:13.553Z,37.00
2018-03-26T12:31:41.407Z,38.13
2018-03-26T12:34:20.953Z,36.60
2018-03-26T12:36:48.815Z,38.72
2018-03-26T12:39:16.611Z,38.92
2018-03-26T12:41:45.203Z,39.55
2018-03-26T12:44:19.725Z,40.22
2018-03-26T12:46:47.550Z,40.92
2018-03-26T12:49:15.364Z,38.22
2018-03-26T12:51:55.107Z,37.33
2018-03-26T12:54:22.918Z,37.97
2018-03-26T12:57:02.796Z,38.53
2018-03-26T12:59:31.364Z,35.85
2018-03-26T13:02:10.915Z,38.40
2018-03-26T13:04:39.499Z,39.38
2018-03-26T13:07:08.068Z,41.80
2018-03-26T13:09:36.704Z,38.40
2018-03-26T13:12:04.504Z,38.90
2018-03-26T13:14:32.309Z,38.75
2018-03-26T13:17:00.179Z,48.50
2018-03-26T13:19:27.989Z,41.95
2018-03-26T13:21:55.781Z,39.78
2018-03-26T13:24:23.672Z,40.53
2018-03-26T13:26:51.482Z,43.13
2018-03-26T13:29:19.287Z,42.53
2018-03-26T13:31:47.143Z,41.40
2018-03-26T13:34:14.950Z,48.50
2018-03-26T13:36:42.757Z,50.17
2018-03-26T13:39:10.639Z,48.97
2018-03-26T13:41:38.451Z,45.45
2018-03-26T13:44:06.258Z,46.58
2018-03-26T13:46:34.179Z,44.67
2018-03-26T13:49:01.995Z,42.53
2018-03-26T13:51:29.797Z,45.35
2018-03-26T13:53:57.694Z,42.95
2018-03-26T13:56:26.274Z,39.42
2018-03-26T13:58:54.847Z,41.83
2018-03-26T14:01:22.735Z,42.50
2018-03-26T14:03:50.527Z,40.10
2018-03-26T14:06:18.353Z,41.13
2018-03-26T14:08:58.875Z,40.08
2018-03-26T14:11:38.493Z,44.42
2018-03-26T14:14:18.820Z,43.63
2018-03-26T14:16:58.451Z,40.05
2018-03-26T14:19:26.323Z,42.08
2018-03-26T14:21:54.138Z,43.67
2018-03-26T14:24:21.954Z,41.65
2018-03-26T14:26:49.825Z,42.80
2018-03-26T14:29:17.620Z,41.80
2018-03-26T14:31:45.418Z,41.28
2018-03-26T14:34:14.080Z,42.62
2018-03-26T14:36:41.892Z,40.10
2018-03-26T14:39:09.689Z,43.40
2018-03-26T14:41:37.674Z,43.00
2018-03-26T14:44:05.481Z,42.40
2018-03-26T14:46:33.284Z,43.42
2018-03-26T14:49:01.300Z,39.58
2018-03-26T14:51:29.864Z,44.70
2018-03-26T14:53:58.457Z,46.10
2018-03-26T14:56:27.088Z,42.88
2018-03-26T14:58:54.896Z,43.35
2018-03-26T15:01:23.452Z,42.85
2018-03-26T15:03:56.896Z,42.55
2018-03-26T15:06:24.687Z,44.20
2018-03-26T15:08:52.508Z,43.28
2018-03-26T15:11:21.125Z,42.00
2018-03-26T15:13:48.926Z,42.65
2018-03-26T15:16:16.737Z,41.50
2018-03-26T15:18:44.596Z,43.30
2018-03-26T15:21:12.395Z,42.30
2018-03-26T15:23:40.992Z,42.45
2018-03-26T15:26:08.851Z,42.65
2018-03-26T15:28:36.639Z,41.55
2018-03-26T15:31:05.201Z,39.65
2018-03-26T15:33:33.097Z,40.97
2018-03-26T15:36:00.954Z,39.72
2018-03-26T15:38:29.560Z,43.42
2018-03-26T15:40:57.645Z,40.50
2018-03-26T15:43:25.451Z,40.97
2018-03-26T15:45:54.027Z,40.08
2018-03-26T15:48:21.951Z,41.10
2018-03-26T15:50:49.771Z,39.08
2018-03-26T15:53:18.347Z,37.75
2018-03-26T15:55:46.983Z,39.78
2018-03-26T15:58:14.775Z,41.03
2018-03-26T16:00:42.656Z,42.35
2018-03-26T16:03:16.337Z,40.00
2018-03-26T16:05:44.185Z,41.90
2018-03-26T16:08:12.016Z,41.17
2018-03-26T16:10:42.780Z,42.97
2018-03-26T16:13:10.608Z,44.10
2018-03-26T16:15:38.412Z,47.47
2018-03-26T16:18:07.039Z,44.63
2018-03-26T16:20:35.618Z,45.80
2018-03-26T16:23:04.184Z,43.60
2018-03-26T16:25:32.090Z,44.13
2018-03-26T16:27:59.876Z,44.97
2018-03-26T16:30:27.667Z,43.85
2018-03-26T16:32:55.523Z,50.58
2018-03-26T16:35:23.326Z,49.60
2018-03-26T16:37:51.141Z,49.97
2018-03-26T16:40:19.024Z,48.47
2018-03-26T16:42:46.830Z,49.08
2018-03-26T16:45:15.094Z,53.15
2018-03-26T16:47:42.961Z,54.78
2018-03-26T16:50:10.771Z,53.60
2018-03-26T16:52:38.623Z,52.65
2018-03-26T16:55:06.488Z,54.38
2018-03-26T16:57:34.304Z,51.30
2018-03-26T17:00:02.123Z,45.08
2018-03-26T17:02:29.999Z,43.20
2018-03-26T17:04:57.786Z,39.80
2018-03-26T17:07:26.347Z,40.67
2018-03-26T17:09:54.229Z,37.63
2018-03-26T17:12:22.801Z,34.35
2018-03-26T17:14:51.360Z,33.13
2018-03-26T17:34:41.142Z,27.40
2018-03-26T17:37:08.975Z,25.88
2018-03-26T17:39:37.580Z,28.67
2018-03-26T17:42:06.267Z,27.85
2018-03-26T17:44:34.084Z,26.35
2018-03-26T17:47:01.876Z,25.48
2018-03-26T17:49:29.747Z,23.90
2018-03-26T17:51:57.550Z,26.83
2018-03-26T17:54:25.396Z,24.67
2018-03-26T17:56:54.021Z,27.95
2018-03-26T17:59:21.847Z,26.92
2018-03-26T18:01:50.869Z,26.00
2018-03-26T18:04:18.736Z,25.20
2018-03-26T18:06:46.559Z,24.20
2018-03-26T18:09:15.144Z,23.02
2018-03-26T18:11:43.807Z,28.02
2018-03-26T18:14:11.601Z,23.23
2018-03-26T18:16:39.730Z,25.80
2018-03-26T18:19:07.613Z,25.12
2018-03-26T18:21:36.183Z,20.50
2018-03-26T18:24:03.985Z,23.58
2018-03-26T18:26:31.855Z,25.00
2018-03-26T18:28:59.684Z,23.50
2018-03-26T18:31:27.492Z,28.85
2018-03-26T18:33:55.364Z,23.05
2018-03-26T18:36:23.171Z,23.33
2018-03-26T18:38:50.970Z,26.33
2018-03-26T18:41:18.844Z,26.37
2018-03-26T18:43:46.640Z,26.95
2018-03-26T18:46:14.459Z,29.02
2018-03-26T18:48:43.137Z,23.95
2018-03-26T18:51:10.953Z,26.05
2018-03-26T18:53:38.749Z,28.25
2018-03-26T18:56:07.380Z,26.20
2018-03-26T18:58:35.176Z,25.42
2018-03-26T19:01:02.969Z,26.92
2018-03-26T19:03:30.848Z,27.00
2018-03-26T19:05:58.652Z,26.70
2018-03-26T19:08:26.472Z,25.42
2018-03-26T19:10:54.324Z,27.20
2018-03-26T19:13:22.124Z,25.85
2018-03-26T19:15:49.926Z,27.27
2018-03-26T19:18:18.561Z,27.25
2018-03-26T19:20:46.365Z,27.75
2018-03-26T19:23:14.169Z,26.52
2018-03-26T19:25:42.079Z,27.08
2018-03-26T19:28:10.194Z,27.87
2018-03-26T19:30:38.072Z,27.35
2018-03-26T19:33:05.968Z,28.87
2018-03-26T19:35:33.776Z,29.12
2018-03-26T19:38:01.615Z,28.15
2018-03-26T19:40:29.563Z,27.95
2018-03-26T19:42:57.352Z,28.80
2018-03-26T19:45:25.971Z,29.02
2018-03-26T19:47:53.845Z,29.00
2018-03-26T19:50:21.645Z,29.58
2018-03-26T19:52:49.461Z,26.30
2018-03-26T19:55:17.364Z,28.55
2018-03-26T19:57:45.164Z,31.85
2018-03-26T20:00:13.718Z,27.75
2018-03-26T20:02:41.610Z,29.80
2018-03-26T20:05:10.173Z,28.45
2018-03-26T20:07:38.748Z,28.00
2018-03-26T20:10:06.658Z,29.37
2018-03-26T20:12:34.475Z,29.70
2018-03-26T20:15:02.290Z,29.40
2018-03-26T20:17:30.173Z,27.73
2018-03-26T20:19:58.729Z,29.45
2018-03-26T20:22:26.525Z,28.20
2018-03-26T20:24:55.157Z,29.80
2018-03-26T20:27:23.082Z,28.52
2018-03-26T20:29:50.895Z,26.35
2018-03-26T20:32:20.722Z,27.67
2018-03-26T20:34:48.526Z,25.77
2018-03-26T20:37:17.107Z,27.20
2018-03-26T20:39:44.970Z,27.08
2018-03-26T20:42:12.990Z,28.23
2018-03-26T20:44:40.790Z,26.45
2018-03-26T20:47:08.657Z,27.50
2018-03-26T20:49:36.455Z,30.10
2018-03-26T20:52:04.313Z,26.35
2018-03-26T20:54:32.949Z,27.33
2018-03-26T20:57:00.747Z,29.40
2018-03-26T20:59:28.532Z,28.67
2018-03-26T21:01:56.421Z,32.90
2018-03-26T21:04:24.221Z,31.35
2018-03-26T21:06:52.045Z,30.27
2018-03-26T21:09:19.938Z,29.65
2018-03-26T21:11:47.732Z,33.15
2018-03-26T21:14:16.289Z,33.03
2018-03-26T21:16:44.228Z,33.78
2018-03-26T21:19:12.041Z,34.67
2018-03-26T21:21:40.608Z,35.08
2018-03-26T21:24:08.529Z,37.05
2018-03-26T21:26:36.447Z,37.85
2018-03-26T21:29:05.169Z,36.10
2018-03-26T21:31:33.223Z,41.10
2018-03-26T21:34:01.022Z,40.30
2018-03-26T21:36:28.819Z,43.70
2018-03-26T21:38:56.681Z,42.62
2018-03-26T21:41:24.555Z,45.85
2018-03-26T21:43:52.357Z,44.63
2018-03-26T21:46:20.241Z,43.00
2018-03-26T21:48:48.081Z,42.47
2018-03-26T21:51:15.923Z,41.17
2018-03-26T21:53:44.546Z,44.55
2018-03-26T21:56:12.386Z,39.13
2018-03-26T21:58:40.191Z,32.05
2018-03-26T22:01:08.091Z,30.25
2018-03-26T22:03:36.654Z,30.52
2018-03-26T22:06:04.476Z,28.65
2018-03-26T22:08:32.361Z,28.58
2018-03-26T22:11:00.156Z,25.42
2018-03-26T22:13:27.955Z,24.25
2018-03-26T22:15:55.817Z,21.08
2018-03-26T22:18:23.636Z,22.87
2018-03-26T22:20:51.483Z,22.83
2018-03-26T22:23:19.349Z,24.23
2018-03-26T22:25:47.164Z,20.58
2018-03-26T22:28:14.951Z,21.75
2018-03-26T22:30:42.824Z,21.77
2018-03-26T22:33:10.615Z,19.83
2018-03-26T22:35:38.415Z,18.90
2018-03-26T22:38:06.288Z,21.77
2018-03-26T22:40:34.079Z,19.60
2018-03-26T22:43:01.922Z,17.62
2018-03-26T22:45:29.817Z,20.92
2018-03-26T22:47:57.617Z,17.62
2018-03-26T22:50:26.178Z,16.00
2018-03-26T22:52:54.052Z,18.70
2018-03-26T22:55:21.860Z,17.48
2018-03-26T22:57:49.667Z,18.25
2018-03-26T23:00:17.542Z,18.05
2018-03-26T23:02:46.116Z,19.98
2018-03-26T23:05:13.908Z,19.08
2018-03-26T23:07:41.771Z,17.85
2018-03-26T23:10:09.580Z,17.67
2018-03-26T23:12:37.373Z,18.85
2018-03-26T23:15:06.012Z,18.30
2018-03-26T23:17:33.810Z,19.27
2018-03-26T23:20:01.621Z,18.23
2018-03-26T23:22:41.368Z,18.08
2018-03-26T23:25:09.160Z,20.27
2018-03-26T23:27:36.947Z,19.85
2018-03-26T23:30:04.801Z,21.08
2018-03-26T23:32:32.598Z,18.95
2018-03-26T23:35:00.399Z,18.70
2018-03-26T23:37:29.044Z,17.95
2018-03-26T23:39:56.839Z,19.52
2018-03-26T23:42:24.630Z,21.50
2018-03-26T23:44:52.487Z,18.83
2018-03-26T23:47:20.295Z,19.98
2018-03-26T23:49:48.089Z,18.40
2018-03-26T23:52:15.952Z,20.23
2018-03-26T23:54:43.744Z,19.20
2018-03-26T23:57:11.545Z,18.75
2018-03-26T23:59:39.406Z,20.95
